METAR Data
IDs: Format: Raw Decoded Include TAF

Data at: 1931 UTC 31 Jul 2021

METAR for:KMRB (Martinsburg/E West V, WV, US)
Text:KMRB 311853Z 31006KT 10SM FEW060 28/12 A2996 RMK AO2 SLP140 T02780117
Temperature: 27.8°C ( 82°F)
Dewpoint: 11.7°C ( 53°F) [RH = 37%]
Pressure (altimeter):29.96 inches Hg (1014.6 mb) [Sea level pressure: 1014.0 mb]
Winds:from the NW (310 degrees) at 7 MPH (6 knots; 3.1 m/s)
Visibility:10 or more sm (16+ km)
Ceiling:at least 12,000 feet AGL
Clouds: few clouds at 6000 feet AGL